Meteo Giornale » Osservazioni meteo Italia » Paganella

ore: 11:55 - Osservazioni Meteo Paganella
Lat. 46° 9' N Lon. 11° 2' E Alt. 2125 metri s.l.m.

poco_nuvoloso Europe/Rome

12 °C

Poco Nuvoloso

Temp. 24 Ore

10 °C

15 °C

Nord-Est

11.1 Km/h

Dew point 8 °C

Umidità 76 %

Visibilità  3 Km

Il sole sorge alle ore 06:04

Il sole tramonta alle ore 20:38

Data e Ora Cielo e Fenomeni T °C DP °C Um. % Pres. hPa Vis. km Vento km/h
Oggi h: 11:55 poco_nuvoloso Poco Nuvoloso 12 8 76 1026 3 NE 11.1
Oggi h: 10:55 poco_nuvoloso Poco Nuvoloso 11 7 76 1026 10 N 11.1
Oggi h: 09:55 poco_nuvoloso Poco Nuvoloso 11 8 81 1026 10 N 16.7
Oggi h: 08:55 poco_nuvoloso Poco Nuvoloso 10 9 93 1026 10 N 16.7
Oggi h: 07:55 nebbia Nebbia 10 10 100 1025 0.3 N 7.4
Oggi h: 06:55 poco_nuvoloso Poco Nuvoloso 10 10 100 1025 10 N 5.5
Oggi h: 05:55 poco_nuvoloso Poco Nuvoloso 10 8 87 1025 10 N 5.5
Oggi h: 04:55 sereno Sereno 10 8 87 1025 10 N 3.7
Oggi h: 03:55 sereno Sereno 10 7 81 1026 10 N 0
Oggi h: 02:55 sereno Sereno 10 7 81 1026 10 N 0
Oggi h: 01:55 sereno Sereno 11 6 71 1026 10 N 0
Oggi h: 00:55 sereno Sereno 10 7 81 1026 10 N 0
Ieri h: 23:55 nebbia Nebbia 10 10 100 1026 0.5 N 0
Ieri h: 22:55 poco_nuvoloso Poco Nuvoloso 12 8 76 1026 10 E/NE 9.3
Ieri h: 21:55 nuvoloso Nuvoloso 11 6 71 1026 10 SO 9.3
Ieri h: 20:55 coperto_pioggia Pioggia Debole 11 8 81 1026 10 N 5.5
Ieri h: 19:55 poco_nuvoloso Poco Nuvoloso 13 7 66 1025 10 N 3.7
Ieri h: 18:55 poco_nuvoloso Poco Nuvoloso 13 5 58 1025 10 N 5.5
Ieri h: 17:55 nuvoloso Nuvoloso 13 7 66 1026 10 N 5.5
Ieri h: 16:55 poco_nuvoloso Poco Nuvoloso 14 10 76 1025 10 S/SO 7.4
Ieri h: 15:55 nuvoloso Nuvoloso 15 10 72 1026 10 S/SO 7.4
Ieri h: 14:55 nuvoloso Nuvoloso 14 12 87 1026 10 N 0
Ieri h: 13:55 poco_nuvoloso Poco Nuvoloso 14 11 82 1026 10 N 3.7
Ieri h: 12:55 poco_nuvoloso Poco Nuvoloso 14 10 76 1026 10 N 5.5